<?xml version="1.0" encoding="UTF-8"?><gpx version="1.1"><trk><name>Rund im Altenmünster</name><trkseg><trkpt lat="48.4620121" lon="10.6021294"><ele>497.0</ele><time>2020-06-30T06:59:58Z</time></trkpt><trkpt lat="48.4622838" lon="10.6017597"><ele>497.0</ele><time>2020-06-30T07:00:51Z</time></trkpt><trkpt lat="48.4627032" lon="10.6010169"><ele>497.0</ele><time>2020-06-30T07:00:57Z</time></trkpt><trkpt lat="48.4627567" lon="10.6006025"><ele>497.0</ele><time>2020-06-30T07:01:10Z</time></trkpt><trkpt lat="48.4628257" lon="10.60021"><ele>497.0</ele><time>2020-06-30T07:02:35Z</time></trkpt><trkpt lat="48.4628222" lon="10.5997879"><ele>497.0</ele><time>2020-06-30T07:03:02Z</time></trkpt><trkpt lat="48.4628235" lon="10.5993647"><ele>489.0</ele><time>2020-06-30T07:03:34Z</time></trkpt><trkpt lat="48.4627992" lon="10.5989507"><ele>488.0</ele><time>2020-06-30T07:03:42Z</time></trkpt><trkpt lat="48.4627723" lon="10.5985344"><ele>487.0</ele><time>2020-06-30T07:03:49Z</time></trkpt><trkpt lat="48.4627578" lon="10.5980803"><ele>500.0</ele><time>2020-06-30T07:03:56Z</time></trkpt><trkpt lat="48.4627299" lon="10.5976654"><ele>500.0</ele><time>2020-06-30T07:04:03Z</time></trkpt><trkpt lat="48.462698" lon="10.5972483"><ele>500.0</ele><time>2020-06-30T07:04:11Z</time></trkpt><trkpt lat="48.4626779" lon="10.5968212"><ele>485.8999938964844</ele><time>2020-06-30T07:04:41Z</time></trkpt><trkpt lat="48.4626538" lon="10.5963971"><ele>485.8999938964844</ele><time>2020-06-30T07:04:51Z</time></trkpt><trkpt lat="48.4624458" lon="10.5961006"><ele>485.8999938964844</ele><time>2020-06-30T07:05:02Z</time></trkpt><trkpt lat="48.4622677" lon="10.5957483"><ele>485.8999938964844</ele><time>2020-06-30T07:05:12Z</time></trkpt><trkpt lat="48.462372" lon="10.5953265"><ele>483.5</ele><time>2020-06-30T07:05:24Z</time></trkpt><trkpt lat="48.462545" lon="10.5949942"><ele>483.5</ele><time>2020-06-30T07:05:32Z</time></trkpt><trkpt lat="48.4619157" lon="10.590737"><ele>482.70001220703125</ele><time>2020-06-30T07:13:12Z</time></trkpt><trkpt lat="48.4618886" lon="10.5903015"><ele>482.70001220703125</ele><time>2020-06-30T07:13:22Z</time></trkpt><trkpt lat="48.4619206" lon="10.5898499"><ele>482.70001220703125</ele><time>2020-06-30T07:13:30Z</time></trkpt><trkpt lat="48.4619733" lon="10.5894508"><ele>485.70001220703125</ele><time>2020-06-30T07:13:39Z</time></trkpt><trkpt lat="48.4617845" lon="10.5891458"><ele>486.3000183105469</ele><time>2020-06-30T07:14:11Z</time></trkpt><trkpt lat="48.4618428" lon="10.5887018"><ele>486.8000183105469</ele><time>2020-06-30T07:14:22Z</time></trkpt><trkpt lat="48.4619813" lon="10.5883272"><ele>488.1000061035156</ele><time>2020-06-30T07:14:33Z</time></trkpt><trkpt lat="48.4620587" lon="10.5879376"><ele>488.1000061035156</ele><time>2020-06-30T07:14:40Z</time></trkpt><trkpt lat="48.4620659" lon="10.5874956"><ele>488.1000061035156</ele><time>2020-06-30T07:14:47Z</time></trkpt><trkpt lat="48.4619766" lon="10.5870809"><ele>488.6000061035156</ele><time>2020-06-30T07:14:54Z</time></trkpt><trkpt lat="48.4618651" lon="10.5866994"><ele>488.6000061035156</ele><time>2020-06-30T07:15:01Z</time></trkpt><trkpt lat="48.4620971" lon="10.5864604"><ele>253.60000610351562</ele><time>2020-06-30T07:15:15Z</time></trkpt><trkpt lat="48.4623851" lon="10.5864733"><ele>253.60000610351562</ele><time>2020-06-30T07:15:22Z</time></trkpt><trkpt lat="48.4623757" lon="10.5860349"><ele>253.60000610351562</ele><time>2020-06-30T07:15:29Z</time></trkpt><trkpt lat="48.4623037" lon="10.5856237"><ele>493.5</ele><time>2020-06-30T07:15:34Z</time></trkpt><trkpt lat="48.4622438" lon="10.5851628"><ele>493.5</ele><time>2020-06-30T07:15:41Z</time></trkpt><trkpt lat="48.4622087" lon="10.5847481"><ele>493.5</ele><time>2020-06-30T07:15:47Z</time></trkpt><trkpt lat="48.4621582" lon="10.5843243"><ele>493.5</ele><time>2020-06-30T07:15:55Z</time></trkpt><trkpt lat="48.4620595" lon="10.5838881"><ele>493.5</ele><time>2020-06-30T07:16:04Z</time></trkpt><trkpt lat="48.4619169" lon="10.5835401"><ele>493.5</ele><time>2020-06-30T07:16:13Z</time></trkpt><trkpt lat="48.4617974" lon="10.5831507"><ele>493.5</ele><time>2020-06-30T07:16:26Z</time></trkpt><trkpt lat="48.4617713" lon="10.5827056"><ele>499.0</ele><time>2020-06-30T07:16:37Z</time></trkpt><trkpt lat="48.4619756" lon="10.583042"><ele>495.0</ele><time>2020-06-30T07:17:02Z</time></trkpt><trkpt lat="48.4621131" lon="10.5834366"><ele>492.0</ele><time>2020-06-30T07:17:09Z</time></trkpt><trkpt lat="48.4623759" lon="10.5835341"><ele>493.0</ele><time>2020-06-30T07:17:17Z</time></trkpt><trkpt lat="48.4626474" lon="10.5834113"><ele>493.0</ele><time>2020-06-30T07:17:24Z</time></trkpt><trkpt lat="48.4629216" lon="10.583304"><ele>494.0</ele><time>2020-06-30T07:17:32Z</time></trkpt><trkpt lat="48.4631916" lon="10.5831828"><ele>494.8000183105469</ele><time>2020-06-30T07:17:41Z</time></trkpt><trkpt lat="48.4634806" lon="10.5830958"><ele>494.8000183105469</ele><time>2020-06-30T07:17:49Z</time></trkpt><trkpt lat="48.463762" lon="10.58296"><ele>495.1000061035156</ele><time>2020-06-30T07:17:58Z</time></trkpt><trkpt lat="48.4640222" lon="10.5828523"><ele>495.1000061035156</ele><time>2020-06-30T07:18:06Z</time></trkpt><trkpt lat="48.4642938" lon="10.5827468"><ele>495.1000061035156</ele><time>2020-06-30T07:18:15Z</time></trkpt><trkpt lat="48.464566" lon="10.5826183"><ele>495.1000061035156</ele><time>2020-06-30T07:18:38Z</time></trkpt><trkpt lat="48.4648374" lon="10.5825067"><ele>495.1000061035156</ele><time>2020-06-30T07:18:46Z</time></trkpt><trkpt lat="48.4651304" lon="10.5823766"><ele>502.0</ele><time>2020-06-30T07:18:54Z</time></trkpt><trkpt lat="48.4654154" lon="10.5822649"><ele>503.0</ele><time>2020-06-30T07:19:02Z</time></trkpt><trkpt lat="48.4656778" lon="10.5821514"><ele>504.0</ele><time>2020-06-30T07:19:10Z</time></trkpt><trkpt lat="48.4659627" lon="10.5820207"><ele>505.0</ele><time>2020-06-30T07:19:19Z</time></trkpt><trkpt lat="48.4662431" lon="10.5819"><ele>506.0</ele><time>2020-06-30T07:19:27Z</time></trkpt><trkpt lat="48.4665202" lon="10.5818055"><ele>507.0</ele><time>2020-06-30T07:19:34Z</time></trkpt><trkpt lat="48.4668171" lon="10.581682"><ele>507.0</ele><time>2020-06-30T07:19:42Z</time></trkpt><trkpt lat="48.4670821" lon="10.5815739"><ele>508.0</ele><time>2020-06-30T07:19:50Z</time></trkpt><trkpt lat="48.4673575" lon="10.5814491"><ele>508.0</ele><time>2020-06-30T07:19:58Z</time></trkpt><trkpt lat="48.4676271" lon="10.5813268"><ele>510.0</ele><time>2020-06-30T07:20:06Z</time></trkpt><trkpt lat="48.4678935" lon="10.5812321"><ele>510.0</ele><time>2020-06-30T07:20:13Z</time></trkpt><trkpt lat="48.4681746" lon="10.5811031"><ele>513.0</ele><time>2020-06-30T07:20:21Z</time></trkpt><trkpt lat="48.4684589" lon="10.5810065"><ele>514.0</ele><time>2020-06-30T07:20:28Z</time></trkpt><trkpt lat="48.4687438" lon="10.5808688"><ele>515.0</ele><time>2020-06-30T07:20:36Z</time></trkpt><trkpt lat="48.469037" lon="10.580764"><ele>515.0</ele><time>2020-06-30T07:20:44Z</time></trkpt><trkpt lat="48.469324" lon="10.5806325"><ele>515.0</ele><time>2020-06-30T07:20:52Z</time></trkpt><trkpt lat="48.4695903" lon="10.5805178"><ele>513.0</ele><time>2020-06-30T07:21:00Z</time></trkpt><trkpt lat="48.4698764" lon="10.5804042"><ele>511.0</ele><time>2020-06-30T07:21:10Z</time></trkpt><trkpt lat="48.4701644" lon="10.5802927"><ele>509.0</ele><time>2020-06-30T07:21:19Z</time></trkpt><trkpt lat="48.4704484" lon="10.5801888"><ele>506.0</ele><time>2020-06-30T07:21:28Z</time></trkpt><trkpt lat="48.4707103" lon="10.5800662"><ele>504.0</ele><time>2020-06-30T07:21:39Z</time></trkpt><trkpt lat="48.4709773" lon="10.5799471"><ele>501.0</ele><time>2020-06-30T07:21:49Z</time></trkpt><trkpt lat="48.4712376" lon="10.5798249"><ele>499.0</ele><time>2020-06-30T07:21:58Z</time></trkpt><trkpt lat="48.4714067" lon="10.5801908"><ele>493.0</ele><time>2020-06-30T07:22:26Z</time></trkpt><trkpt lat="48.4715226" lon="10.5805626"><ele>491.0</ele><time>2020-06-30T07:28:34Z</time></trkpt><trkpt lat="48.4716551" lon="10.580919"><ele>492.0</ele><time>2020-06-30T07:28:56Z</time></trkpt><trkpt lat="48.4717998" lon="10.5812889"><ele>495.0</ele><time>2020-06-30T07:29:34Z</time></trkpt><trkpt lat="48.4719666" lon="10.5816222"><ele>495.0</ele><time>2020-06-30T07:29:50Z</time></trkpt><trkpt lat="48.4720947" lon="10.5820103"><ele>493.0</ele><time>2020-06-30T07:30:04Z</time></trkpt><trkpt lat="48.4721057" lon="10.5824234"><ele>492.0</ele><time>2020-06-30T07:30:17Z</time></trkpt><trkpt lat="48.4723557" lon="10.5825765"><ele>490.0</ele><time>2020-06-30T07:31:10Z</time></trkpt><trkpt lat="48.4725921" lon="10.5823655"><ele>489.0</ele><time>2020-06-30T07:31:31Z</time></trkpt><trkpt lat="48.4728395" lon="10.5821625"><ele>490.0</ele><time>2020-06-30T07:31:53Z</time></trkpt><trkpt lat="48.473031" lon="10.5818648"><ele>489.0</ele><time>2020-06-30T07:32:15Z</time></trkpt><trkpt lat="48.4732464" lon="10.5815732"><ele>490.0</ele><time>2020-06-30T07:32:37Z</time></trkpt><trkpt lat="48.4734452" lon="10.5812656"><ele>491.0</ele><time>2020-06-30T07:32:46Z</time></trkpt><trkpt lat="48.4737184" lon="10.5813897"><ele>494.0</ele><time>2020-06-30T07:33:03Z</time></trkpt><trkpt lat="48.4738324" lon="10.5817816"><ele>496.0</ele><time>2020-06-30T07:33:11Z</time></trkpt><trkpt lat="48.4739095" lon="10.5821722"><ele>498.0</ele><time>2020-06-30T07:33:19Z</time></trkpt><trkpt lat="48.4739958" lon="10.5825865"><ele>499.0</ele><time>2020-06-30T07:33:27Z</time></trkpt><trkpt lat="48.4740885" lon="10.5830198"><ele>499.0</ele><time>2020-06-30T07:33:35Z</time></trkpt><trkpt lat="48.4741813" lon="10.5834543"><ele>499.0</ele><time>2020-06-30T07:33:44Z</time></trkpt><trkpt lat="48.4742725" lon="10.583839"><ele>498.0</ele><time>2020-06-30T07:33:51Z</time></trkpt><trkpt lat="48.4743578" lon="10.5842612"><ele>497.0</ele><time>2020-06-30T07:33:59Z</time></trkpt><trkpt lat="48.4744535" lon="10.5846525"><ele>501.0</ele><time>2020-06-30T07:34:13Z</time></trkpt><trkpt lat="48.4745934" lon="10.5850564"><ele>502.0</ele><time>2020-06-30T07:34:20Z</time></trkpt><trkpt lat="48.4746936" lon="10.5854631"><ele>502.0</ele><time>2020-06-30T07:34:27Z</time></trkpt><trkpt lat="48.4747818" lon="10.5858579"><ele>503.0</ele><time>2020-06-30T07:34:33Z</time></trkpt><trkpt lat="48.4748972" lon="10.5862881"><ele>503.0</ele><time>2020-06-30T07:34:40Z</time></trkpt><trkpt lat="48.4750507" lon="10.5866768"><ele>501.0</ele><time>2020-06-30T07:34:46Z</time></trkpt><trkpt lat="48.4753252" lon="10.5868549"><ele>499.0</ele><time>2020-06-30T07:34:52Z</time></trkpt><trkpt lat="48.4756053" lon="10.5868547"><ele>499.0</ele><time>2020-06-30T07:34:58Z</time></trkpt><trkpt lat="48.4758841" lon="10.586864"><ele>500.0</ele><time>2020-06-30T07:35:04Z</time></trkpt><trkpt lat="48.4761666" lon="10.586929"><ele>502.0</ele><time>2020-06-30T07:35:10Z</time></trkpt><trkpt lat="48.4764482" lon="10.5870677"><ele>504.0</ele><time>2020-06-30T07:35:16Z</time></trkpt><trkpt lat="48.4767062" lon="10.5872106"><ele>504.0</ele><time>2020-06-30T07:35:22Z</time></trkpt><trkpt lat="48.4769206" lon="10.5874939"><ele>500.0</ele><time>2020-06-30T07:35:30Z</time></trkpt><trkpt lat="48.4767253" lon="10.5877876"><ele>499.0</ele><time>2020-06-30T07:35:38Z</time></trkpt><trkpt lat="48.4764972" lon="10.5880952"><ele>498.0</ele><time>2020-06-30T07:35:45Z</time></trkpt><trkpt lat="48.4762785" lon="10.5883519"><ele>497.0</ele><time>2020-06-30T07:35:51Z</time></trkpt><trkpt lat="48.4760781" lon="10.5886329"><ele>498.0</ele><time>2020-06-30T07:35:57Z</time></trkpt><trkpt lat="48.4758854" lon="10.5889388"><ele>498.0</ele><time>2020-06-30T07:36:03Z</time></trkpt><trkpt lat="48.4756166" lon="10.5891333"><ele>495.0</ele><time>2020-06-30T07:36:10Z</time></trkpt><trkpt lat="48.4753967" lon="10.5888724"><ele>493.0</ele><time>2020-06-30T07:36:16Z</time></trkpt><trkpt lat="48.4751796" lon="10.5886014"><ele>491.0</ele><time>2020-06-30T07:36:22Z</time></trkpt><trkpt lat="48.4748989" lon="10.5885747"><ele>491.0</ele><time>2020-06-30T07:36:28Z</time></trkpt><trkpt lat="48.4746522" lon="10.58878"><ele>489.0</ele><time>2020-06-30T07:36:37Z</time></trkpt><trkpt lat="48.4743854" lon="10.5889557"><ele>487.0</ele><time>2020-06-30T07:36:49Z</time></trkpt><trkpt lat="48.4740936" lon="10.5890564"><ele>488.0</ele><time>2020-06-30T07:36:58Z</time></trkpt><trkpt lat="48.4738273" lon="10.5891604"><ele>486.0</ele><time>2020-06-30T07:37:05Z</time></trkpt><trkpt lat="48.473558" lon="10.5892658"><ele>484.0</ele><time>2020-06-30T07:37:13Z</time></trkpt><trkpt lat="48.4732739" lon="10.5893955"><ele>482.0</ele><time>2020-06-30T07:37:21Z</time></trkpt><trkpt lat="48.4729964" lon="10.5895162"><ele>481.0</ele><time>2020-06-30T07:37:29Z</time></trkpt><trkpt lat="48.4727237" lon="10.5896225"><ele>481.0</ele><time>2020-06-30T07:37:37Z</time></trkpt><trkpt lat="48.4724427" lon="10.5897341"><ele>480.0</ele><time>2020-06-30T07:37:46Z</time></trkpt><trkpt lat="48.4721765" lon="10.58982"><ele>482.0</ele><time>2020-06-30T07:37:57Z</time></trkpt><trkpt lat="48.4718994" lon="10.5898154"><ele>482.0</ele><time>2020-06-30T07:38:05Z</time></trkpt><trkpt lat="48.4716226" lon="10.5898288"><ele>482.0</ele><time>2020-06-30T07:38:13Z</time></trkpt><trkpt lat="48.4713188" lon="10.5898365"><ele>482.0</ele><time>2020-06-30T07:38:21Z</time></trkpt><trkpt lat="48.4710212" lon="10.5898533"><ele>483.0</ele><time>2020-06-30T07:38:29Z</time></trkpt><trkpt lat="48.4707205" lon="10.5898697"><ele>482.0</ele><time>2020-06-30T07:38:37Z</time></trkpt><trkpt lat="48.470415" lon="10.5899294"><ele>483.0</ele><time>2020-06-30T07:38:45Z</time></trkpt><trkpt lat="48.4701267" lon="10.5899491"><ele>483.0</ele><time>2020-06-30T07:38:52Z</time></trkpt><trkpt lat="48.4698473" lon="10.5900474"><ele>482.0</ele><time>2020-06-30T07:38:59Z</time></trkpt><trkpt lat="48.4695679" lon="10.5901154"><ele>482.0</ele><time>2020-06-30T07:39:06Z</time></trkpt><trkpt lat="48.4692808" lon="10.5902244"><ele>484.0</ele><time>2020-06-30T07:39:13Z</time></trkpt><trkpt lat="48.4689886" lon="10.5903278"><ele>484.0</ele><time>2020-06-30T07:39:21Z</time></trkpt><trkpt lat="48.4687209" lon="10.5904082"><ele>484.0</ele><time>2020-06-30T07:39:29Z</time></trkpt><trkpt lat="48.4684491" lon="10.5904744"><ele>483.0</ele><time>2020-06-30T07:39:37Z</time></trkpt><trkpt lat="48.4681611" lon="10.5905172"><ele>483.0</ele><time>2020-06-30T07:39:45Z</time></trkpt><trkpt lat="48.4678745" lon="10.5905188"><ele>483.0</ele><time>2020-06-30T07:39:53Z</time></trkpt><trkpt lat="48.4676014" lon="10.5905167"><ele>483.0</ele><time>2020-06-30T07:40:00Z</time></trkpt><trkpt lat="48.4673303" lon="10.5906012"><ele>483.0</ele><time>2020-06-30T07:40:08Z</time></trkpt><trkpt lat="48.4672044" lon="10.5909874"><ele>482.0</ele><time>2020-06-30T07:40:20Z</time></trkpt><trkpt lat="48.4669117" lon="10.5911318"><ele>483.0</ele><time>2020-06-30T07:40:27Z</time></trkpt><trkpt lat="48.4666362" lon="10.5913026"><ele>481.0</ele><time>2020-06-30T07:40:34Z</time></trkpt><trkpt lat="48.4663776" lon="10.5914668"><ele>481.0</ele><time>2020-06-30T07:40:42Z</time></trkpt><trkpt lat="48.466126" lon="10.5916379"><ele>481.0</ele><time>2020-06-30T07:40:51Z</time></trkpt><trkpt lat="48.4658384" lon="10.5918049"><ele>481.0</ele><time>2020-06-30T07:40:59Z</time></trkpt><trkpt lat="48.4655625" lon="10.5918897"><ele>482.0</ele><time>2020-06-30T07:41:06Z</time></trkpt><trkpt lat="48.4652802" lon="10.5919317"><ele>482.0</ele><time>2020-06-30T07:41:13Z</time></trkpt><trkpt lat="48.4649988" lon="10.5918996"><ele>481.0</ele><time>2020-06-30T07:41:21Z</time></trkpt><trkpt lat="48.4647056" lon="10.5918219"><ele>481.0</ele><time>2020-06-30T07:41:29Z</time></trkpt><trkpt lat="48.4644263" lon="10.5918143"><ele>482.0</ele><time>2020-06-30T07:41:36Z</time></trkpt><trkpt lat="48.464199" lon="10.5920437"><ele>482.0</ele><time>2020-06-30T07:41:46Z</time></trkpt><trkpt lat="48.4641751" lon="10.5924601"><ele>482.0</ele><time>2020-06-30T07:41:52Z</time></trkpt><trkpt lat="48.4641401" lon="10.5929162"><ele>483.0</ele><time>2020-06-30T07:41:59Z</time></trkpt><trkpt lat="48.4638851" lon="10.5931815"><ele>483.0</ele><time>2020-06-30T07:42:05Z</time></trkpt><trkpt lat="48.4637029" lon="10.5935157"><ele>483.0</ele><time>2020-06-30T07:42:11Z</time></trkpt><trkpt lat="48.4635415" lon="10.5938692"><ele>483.0</ele><time>2020-06-30T07:42:17Z</time></trkpt><trkpt lat="48.4633616" lon="10.5941995"><ele>483.0</ele><time>2020-06-30T07:42:25Z</time></trkpt><trkpt lat="48.4630627" lon="10.5941385"><ele>482.0</ele><time>2020-06-30T07:42:32Z</time></trkpt><trkpt lat="48.4628225" lon="10.5943717"><ele>482.0</ele><time>2020-06-30T07:42:39Z</time></trkpt><trkpt lat="48.4626002" lon="10.5946496"><ele>483.0</ele><time>2020-06-30T07:42:47Z</time></trkpt><trkpt lat="48.4625224" lon="10.5950698"><ele>483.0</ele><time>2020-06-30T07:42:55Z</time></trkpt><trkpt lat="48.4623379" lon="10.5954039"><ele>483.0</ele><time>2020-06-30T07:43:01Z</time></trkpt><trkpt lat="48.462336" lon="10.5958263"><ele>484.0</ele><time>2020-06-30T07:43:11Z</time></trkpt><trkpt lat="48.4624897" lon="10.596162"><ele>483.0</ele><time>2020-06-30T07:43:19Z</time></trkpt><trkpt lat="48.4626395" lon="10.5965237"><ele>484.0</ele><time>2020-06-30T07:43:30Z</time></trkpt><trkpt lat="48.4626805" lon="10.5969603"><ele>484.0</ele><time>2020-06-30T07:43:40Z</time></trkpt><trkpt lat="48.4626949" lon="10.5973736"><ele>484.0</ele><time>2020-06-30T07:43:48Z</time></trkpt><trkpt lat="48.4627216" lon="10.5977949"><ele>484.0</ele><time>2020-06-30T07:43:55Z</time></trkpt><trkpt lat="48.4627562" lon="10.5982283"><ele>484.0</ele><time>2020-06-30T07:44:02Z</time></trkpt><trkpt lat="48.4627861" lon="10.5986597"><ele>485.0</ele><time>2020-06-30T07:44:09Z</time></trkpt><trkpt lat="48.4628131" lon="10.5990829"><ele>486.0</ele><time>2020-06-30T07:44:16Z</time></trkpt><trkpt lat="48.4628414" lon="10.5995133"><ele>487.0</ele><time>2020-06-30T07:44:23Z</time></trkpt><trkpt lat="48.4628789" lon="10.5999407"><ele>488.0</ele><time>2020-06-30T07:44:31Z</time></trkpt><trkpt lat="48.4628856" lon="10.600383"><ele>489.0</ele><time>2020-06-30T07:44:59Z</time></trkpt><trkpt lat="48.4628669" lon="10.6008199"><ele>489.0</ele><time>2020-06-30T07:45:08Z</time></trkpt><trkpt lat="48.4628431" lon="10.6012712"><ele>491.0</ele><time>2020-06-30T07:45:17Z</time></trkpt><trkpt lat="48.4627358" lon="10.6016849"><ele>492.0</ele><time>2020-06-30T07:45:25Z</time></trkpt><trkpt lat="48.4625573" lon="10.6020174"><ele>492.0</ele><time>2020-06-30T07:38:58Z</time></trkpt></trkseg></trk></gpx>